sensor_id;sensor_type;location;lat;lon;timestamp;pressure;altitude;pressure_sealevel;temperature;humidity
5954;BME280;3002;42.642;24.812;2022-11-20T00:01:11;95937.88;;;20.74;71.68
5954;BME280;3002;42.642;24.812;2022-11-20T00:03:37;95933.50;;;20.24;75.17
5954;BME280;3002;42.642;24.812;2022-11-20T00:06:05;95922.34;;;20.52;73.39
5954;BME280;3002;42.642;24.812;2022-11-20T00:08:30;95919.91;;;20.47;72.73
5954;BME280;3002;42.642;24.812;2022-11-20T00:10:57;95941.19;;;20.87;70.73
5954;BME280;3002;42.642;24.812;2022-11-20T00:13:23;95940.91;;;21.22;69.04
5954;BME280;3002;42.642;24.812;2022-11-20T00:15:48;95951.31;;;21.40;69.04
5954;BME280;3002;42.642;24.812;2022-11-20T00:18:14;95931.13;;;20.91;70.96
5954;BME280;3002;42.642;24.812;2022-11-20T00:20:42;95943.03;;;20.56;75.82
5954;BME280;3002;42.642;24.812;2022-11-20T00:23:07;95936.47;;;19.96;81.12
5954;BME280;3002;42.642;24.812;2022-11-20T00:25:39;95926.91;;;19.83;82.55
5954;BME280;3002;42.642;24.812;2022-11-20T00:28:09;95936.34;;;19.89;82.71
5954;BME280;3002;42.642;24.812;2022-11-20T00:30:36;95959.84;;;19.77;81.46
5954;BME280;3002;42.642;24.812;2022-11-20T00:33:02;95943.16;;;19.98;79.78
5954;BME280;3002;42.642;24.812;2022-11-20T00:35:28;95920.59;;;19.78;81.09
5954;BME280;3002;42.642;24.812;2022-11-20T00:37:53;95940.56;;;20.05;79.26
5954;BME280;3002;42.642;24.812;2022-11-20T00:40:19;95951.97;;;20.57;76.10
5954;BME280;3002;42.642;24.812;2022-11-20T00:42:44;95930.16;;;20.11;79.24
5954;BME280;3002;42.642;24.812;2022-11-20T00:45:10;95944.31;;;19.97;78.26
5954;BME280;3002;42.642;24.812;2022-11-20T00:47:35;95952.47;;;20.63;74.03
5954;BME280;3002;42.642;24.812;2022-11-20T00:50:00;95942.59;;;20.77;72.67
5954;BME280;3002;42.642;24.812;2022-11-20T00:52:26;95943.81;;;21.06;72.25
5954;BME280;3002;42.642;24.812;2022-11-20T00:54:51;95943.19;;;20.67;74.22
5954;BME280;3002;42.642;24.812;2022-11-20T00:57:17;95942.13;;;20.98;71.58
5954;BME280;3002;42.642;24.812;2022-11-20T00:59:42;95937.56;;;21.32;70.14
5954;BME280;3002;42.642;24.812;2022-11-20T01:02:08;95928.91;;;21.27;70.55
5954;BME280;3002;42.642;24.812;2022-11-20T01:04:33;95936.13;;;21.12;70.47
5954;BME280;3002;42.642;24.812;2022-11-20T01:06:59;95922.25;;;20.98;71.77
5954;BME280;3002;42.642;24.812;2022-11-20T01:09:24;95906.84;;;21.35;70.33
5954;BME280;3002;42.642;24.812;2022-11-20T01:11:50;95910.94;;;20.69;72.72
5954;BME280;3002;42.642;24.812;2022-11-20T01:14:19;95901.22;;;21.25;69.30
5954;BME280;3002;42.642;24.812;2022-11-20T01:16:49;95910.47;;;21.47;68.83
5954;BME280;3002;42.642;24.812;2022-11-20T01:19:17;95906.06;;;21.08;69.84
5954;BME280;3002;42.642;24.812;2022-11-20T01:21:44;95891.97;;;21.03;69.63
5954;BME280;3002;42.642;24.812;2022-11-20T01:24:15;95889.03;;;21.45;68.77
5954;BME280;3002;42.642;24.812;2022-11-20T01:26:43;95892.97;;;21.21;69.46
5954;BME280;3002;42.642;24.812;2022-11-20T01:29:21;95875.91;;;21.28;69.19
5954;BME280;3002;42.642;24.812;2022-11-20T01:31:47;95903.88;;;21.21;69.60
5954;BME280;3002;42.642;24.812;2022-11-20T01:34:16;95886.00;;;20.67;71.41
5954;BME280;3002;42.642;24.812;2022-11-20T01:36:42;95872.72;;;20.92;70.17
5954;BME280;3002;42.642;24.812;2022-11-20T01:39:14;95885.91;;;21.17;68.72
5954;BME280;3002;42.642;24.812;2022-11-20T01:41:41;95885.66;;;21.25;67.57
5954;BME280;3002;42.642;24.812;2022-11-20T01:47:17;95864.78;;;21.36;66.94
5954;BME280;3002;42.642;24.812;2022-11-20T01:49:54;95879.31;;;21.18;68.04
5954;BME280;3002;42.642;24.812;2022-11-20T01:52:50;95890.34;;;21.28;67.29
5954;BME280;3002;42.642;24.812;2022-11-20T01:55:18;95893.22;;;21.69;65.74
5954;BME280;3002;42.642;24.812;2022-11-20T01:57:51;95907.38;;;21.78;66.11
5954;BME280;3002;42.642;24.812;2022-11-20T02:00:20;95910.56;;;21.87;65.57
5954;BME280;3002;42.642;24.812;2022-11-20T02:02:58;95902.66;;;21.45;67.13
5954;BME280;3002;42.642;24.812;2022-11-20T02:08:18;95898.91;;;21.27;67.69
5954;BME280;3002;42.642;24.812;2022-11-20T02:10:45;95910.91;;;21.49;66.41
5954;BME280;3002;42.642;24.812;2022-11-20T02:13:17;95898.81;;;21.20;66.69
5954;BME280;3002;42.642;24.812;2022-11-20T02:16:01;95906.88;;;21.39;66.69
5954;BME280;3002;42.642;24.812;2022-11-20T02:18:27;95914.09;;;21.54;66.41
5954;BME280;3002;42.642;24.812;2022-11-20T02:20:58;95900.44;;;21.24;67.66
5954;BME280;3002;42.642;24.812;2022-11-20T02:26:29;95891.25;;;21.66;66.81
5954;BME280;3002;42.642;24.812;2022-11-20T02:28:55;95888.31;;;21.52;65.93
5954;BME280;3002;42.642;24.812;2022-11-20T02:31:21;95869.94;;;21.45;66.37
5954;BME280;3002;42.642;24.812;2022-11-20T02:34:05;95886.91;;;21.31;66.84
5954;BME280;3002;42.642;24.812;2022-11-20T02:36:32;95888.16;;;21.37;67.70
5954;BME280;3002;42.642;24.812;2022-11-20T02:38:59;95875.91;;;21.24;67.99
5954;BME280;3002;42.642;24.812;2022-11-20T02:41:35;95891.78;;;21.79;66.54
5954;BME280;3002;42.642;24.812;2022-11-20T02:44:02;95888.63;;;21.43;67.67
5954;BME280;3002;42.642;24.812;2022-11-20T02:46:29;95884.41;;;21.49;67.01
5954;BME280;3002;42.642;24.812;2022-11-20T02:48:55;95872.59;;;20.81;70.57
5954;BME280;3002;42.642;24.812;2022-11-20T02:51:20;95868.91;;;20.97;69.22
5954;BME280;3002;42.642;24.812;2022-11-20T02:53:46;95872.97;;;21.10;68.59
5954;BME280;3002;42.642;24.812;2022-11-20T02:56:11;95874.13;;;21.09;69.41
5954;BME280;3002;42.642;24.812;2022-11-20T02:58:42;95859.66;;;21.35;68.88
5954;BME280;3002;42.642;24.812;2022-11-20T03:01:07;95872.09;;;21.02;69.86
5954;BME280;3002;42.642;24.812;2022-11-20T03:03:33;95879.22;;;20.84;70.67
5954;BME280;3002;42.642;24.812;2022-11-20T03:05:59;95848.84;;;20.82;69.03
5954;BME280;3002;42.642;24.812;2022-11-20T03:08:25;95879.34;;;20.91;68.95
5954;BME280;3002;42.642;24.812;2022-11-20T03:10:50;95882.00;;;21.14;69.01
5954;BME280;3002;42.642;24.812;2022-11-20T03:13:16;95888.56;;;21.40;68.04
5954;BME280;3002;42.642;24.812;2022-11-20T03:15:41;95883.63;;;21.49;67.06
5954;BME280;3002;42.642;24.812;2022-11-20T03:18:07;95869.50;;;21.13;68.59
5954;BME280;3002;42.642;24.812;2022-11-20T03:20:33;95893.06;;;20.72;71.30
5954;BME280;3002;42.642;24.812;2022-11-20T03:22:59;95870.81;;;19.97;75.74
5954;BME280;3002;42.642;24.812;2022-11-20T03:25:25;95871.09;;;20.38;74.07
5954;BME280;3002;42.642;24.812;2022-11-20T03:27:50;95870.88;;;20.24;74.62
5954;BME280;3002;42.642;24.812;2022-11-20T03:30:16;95871.78;;;20.31;74.09
5954;BME280;3002;42.642;24.812;2022-11-20T03:32:42;95873.53;;;20.20;74.66
5954;BME280;3002;42.642;24.812;2022-11-20T03:35:08;95891.94;;;20.50;73.12
5954;BME280;3002;42.642;24.812;2022-11-20T03:37:33;95898.78;;;20.40;73.49
5954;BME280;3002;42.642;24.812;2022-11-20T03:39:59;95904.38;;;20.74;70.92
5954;BME280;3002;42.642;24.812;2022-11-20T03:42:24;95902.97;;;21.10;69.59
5954;BME280;3002;42.642;24.812;2022-11-20T03:45:08;95897.09;;;21.08;68.79
5954;BME280;3002;42.642;24.812;2022-11-20T03:47:34;95895.69;;;20.65;70.54
5954;BME280;3002;42.642;24.812;2022-11-20T03:49:59;95897.03;;;21.04;68.52
5954;BME280;3002;42.642;24.812;2022-11-20T03:52:24;95895.34;;;21.23;67.65
5954;BME280;3002;42.642;24.812;2022-11-20T03:54:50;95905.47;;;21.49;66.68
5954;BME280;3002;42.642;24.812;2022-11-20T03:57:15;95887.56;;;20.95;69.08
5954;BME280;3002;42.642;24.812;2022-11-20T03:59:41;95900.34;;;20.91;68.65
5954;BME280;3002;42.642;24.812;2022-11-20T04:02:06;95889.34;;;20.83;68.87
5954;BME280;3002;42.642;24.812;2022-11-20T04:04:33;95872.09;;;21.02;67.78
5954;BME280;3002;42.642;24.812;2022-11-20T04:06:59;95870.84;;;21.26;67.02
5954;BME280;3002;42.642;24.812;2022-11-20T04:09:24;95889.00;;;21.15;67.90
5954;BME280;3002;42.642;24.812;2022-11-20T04:11:50;95878.47;;;21.14;66.95
5954;BME280;3002;42.642;24.812;2022-11-20T04:14:16;95876.66;;;20.95;67.99
5954;BME280;3002;42.642;24.812;2022-11-20T04:16:42;95878.41;;;21.10;67.50
5954;BME280;3002;42.642;24.812;2022-11-20T04:19:12;95887.09;;;21.46;65.50
5954;BME280;3002;42.642;24.812;2022-11-20T04:21:38;95883.88;;;21.10;67.12
5954;BME280;3002;42.642;24.812;2022-11-20T04:24:05;95880.56;;;21.24;66.58
5954;BME280;3002;42.642;24.812;2022-11-20T04:26:31;95891.16;;;21.29;65.55
5954;BME280;3002;42.642;24.812;2022-11-20T04:28:57;95871.56;;;21.50;64.74
5954;BME280;3002;42.642;24.812;2022-11-20T04:31:25;95882.41;;;21.16;65.95
5954;BME280;3002;42.642;24.812;2022-11-20T04:33:51;95881.53;;;21.38;66.76
5954;BME280;3002;42.642;24.812;2022-11-20T04:36:24;95876.75;;;21.62;65.47
5954;BME280;3002;42.642;24.812;2022-11-20T04:39:02;95874.66;;;20.92;68.63
5954;BME280;3002;42.642;24.812;2022-11-20T04:41:32;95873.09;;;21.47;66.58
5954;BME280;3002;42.642;24.812;2022-11-20T04:44:02;95882.94;;;21.55;66.06
5954;BME280;3002;42.642;24.812;2022-11-20T04:46:30;95892.72;;;21.60;65.81
5954;BME280;3002;42.642;24.812;2022-11-20T04:48:56;95881.38;;;20.98;67.90
5954;BME280;3002;42.642;24.812;2022-11-20T04:51:22;95878.16;;;20.92;68.67
5954;BME280;3002;42.642;24.812;2022-11-20T04:53:48;95869.38;;;21.02;68.94
5954;BME280;3002;42.642;24.812;2022-11-20T04:56:16;95872.88;;;21.29;67.35
5954;BME280;3002;42.642;24.812;2022-11-20T04:58:41;95857.16;;;20.93;68.14
5954;BME280;3002;42.642;24.812;2022-11-20T05:01:15;95865.06;;;21.01;68.90
5954;BME280;3002;42.642;24.812;2022-11-20T05:03:42;95876.00;;;21.31;67.56
5954;BME280;3002;42.642;24.812;2022-11-20T05:06:09;95874.44;;;21.30;67.61
5954;BME280;3002;42.642;24.812;2022-11-20T05:08:35;95872.25;;;20.37;71.54
5954;BME280;3002;42.642;24.812;2022-11-20T05:11:08;95879.50;;;20.75;68.88
5954;BME280;3002;42.642;24.812;2022-11-20T05:13:36;95867.50;;;20.80;68.98
5954;BME280;3002;42.642;24.812;2022-11-20T05:16:10;95867.19;;;20.85;68.83
5954;BME280;3002;42.642;24.812;2022-11-20T05:18:37;95873.22;;;20.71;69.76
5954;BME280;3002;42.642;24.812;2022-11-20T05:21:03;95860.59;;;20.60;69.93
5954;BME280;3002;42.642;24.812;2022-11-20T05:23:29;95855.81;;;20.79;68.37
5954;BME280;3002;42.642;24.812;2022-11-20T05:25:56;95864.56;;;21.22;66.76
5954;BME280;3002;42.642;24.812;2022-11-20T05:28:22;95872.50;;;21.04;67.49
5954;BME280;3002;42.642;24.812;2022-11-20T05:30:48;95874.97;;;20.87;67.67
5954;BME280;3002;42.642;24.812;2022-11-20T05:33:14;95891.50;;;21.27;66.71
5954;BME280;3002;42.642;24.812;2022-11-20T05:35:40;95882.84;;;20.92;67.48
5954;BME280;3002;42.642;24.812;2022-11-20T05:38:06;95894.69;;;21.03;68.47
5954;BME280;3002;42.642;24.812;2022-11-20T05:40:31;95888.81;;;21.01;67.37
5954;BME280;3002;42.642;24.812;2022-11-20T05:42:57;95886.63;;;20.83;67.93
5954;BME280;3002;42.642;24.812;2022-11-20T05:45:22;95887.72;;;21.05;68.06
5954;BME280;3002;42.642;24.812;2022-11-20T05:47:48;95884.09;;;21.28;66.45
5954;BME280;3002;42.642;24.812;2022-11-20T05:50:14;95882.75;;;21.41;66.00
5954;BME280;3002;42.642;24.812;2022-11-20T05:52:40;95871.81;;;21.11;67.78
5954;BME280;3002;42.642;24.812;2022-11-20T05:55:06;95879.81;;;20.97;66.62
5954;BME280;3002;42.642;24.812;2022-11-20T05:57:32;95877.97;;;21.34;65.59
5954;BME280;3002;42.642;24.812;2022-11-20T05:59:58;95878.72;;;21.65;65.48
5954;BME280;3002;42.642;24.812;2022-11-20T06:02:23;95877.84;;;20.97;66.83
5954;BME280;3002;42.642;24.812;2022-11-20T06:04:49;95884.88;;;21.92;63.30
5954;BME280;3002;42.642;24.812;2022-11-20T06:07:15;95894.75;;;23.62;58.12
5954;BME280;3002;42.642;24.812;2022-11-20T06:09:40;95883.19;;;24.47;54.37
5954;BME280;3002;42.642;24.812;2022-11-20T06:12:06;95894.09;;;25.29;51.86
5954;BME280;3002;42.642;24.812;2022-11-20T06:14:32;95881.25;;;24.79;54.75
5954;BME280;3002;42.642;24.812;2022-11-20T06:16:58;95900.72;;;25.49;54.23
5954;BME280;3002;42.642;24.812;2022-11-20T06:19:23;95897.09;;;25.81;53.53
5954;BME280;3002;42.642;24.812;2022-11-20T06:21:49;95892.59;;;26.67;51.41
5954;BME280;3002;42.642;24.812;2022-11-20T06:24:15;95897.56;;;27.28;49.12
5954;BME280;3002;42.642;24.812;2022-11-20T06:26:41;95906.31;;;26.15;51.82
5954;BME280;3002;42.642;24.812;2022-11-20T06:29:07;95911.03;;;24.77;55.94
5954;BME280;3002;42.642;24.812;2022-11-20T06:31:32;95903.38;;;23.64;59.53
5954;BME280;3002;42.642;24.812;2022-11-20T06:34:00;95910.78;;;22.94;62.18
5954;BME280;3002;42.642;24.812;2022-11-20T06:36:26;95926.09;;;22.58;63.84
5954;BME280;3002;42.642;24.812;2022-11-20T06:38:52;95915.91;;;22.10;66.84
5954;BME280;3002;42.642;24.812;2022-11-20T06:41:19;95920.06;;;23.44;63.91
5954;BME280;3002;42.642;24.812;2022-11-20T06:43:46;95926.19;;;24.00;61.10
5954;BME280;3002;42.642;24.812;2022-11-20T06:46:12;95929.00;;;25.28;58.44
5954;BME280;3002;42.642;24.812;2022-11-20T06:48:39;95923.41;;;25.75;55.50
5954;BME280;3002;42.642;24.812;2022-11-20T06:51:07;95924.75;;;24.77;57.28
5954;BME280;3002;42.642;24.812;2022-11-20T06:53:33;95912.94;;;24.23;57.98
5954;BME280;3002;42.642;24.812;2022-11-20T06:55:59;95933.09;;;23.65;58.07
5954;BME280;3002;42.642;24.812;2022-11-20T06:58:29;95924.28;;;23.31;58.05
5954;BME280;3002;42.642;24.812;2022-11-20T07:01:03;95931.19;;;23.04;57.56
5954;BME280;3002;42.642;24.812;2022-11-20T07:03:28;95930.88;;;23.19;57.70
5954;BME280;3002;42.642;24.812;2022-11-20T07:05:55;95921.44;;;23.10;56.94
5954;BME280;3002;42.642;24.812;2022-11-20T07:08:21;95901.56;;;22.65;58.27
5954;BME280;3002;42.642;24.812;2022-11-20T07:10:46;95901.16;;;22.63;58.46
5954;BME280;3002;42.642;24.812;2022-11-20T07:13:13;95895.41;;;22.27;59.26
5954;BME280;3002;42.642;24.812;2022-11-20T07:15:39;95910.63;;;22.28;60.59
5954;BME280;3002;42.642;24.812;2022-11-20T07:18:04;95925.53;;;22.01;61.35
5954;BME280;3002;42.642;24.812;2022-11-20T07:20:30;95868.50;;;22.84;57.90
5954;BME280;3002;42.642;24.812;2022-11-20T07:22:56;95912.72;;;23.59;56.08
5954;BME280;3002;42.642;24.812;2022-11-20T07:25:26;95903.28;;;23.53;56.31
5954;BME280;3002;42.642;24.812;2022-11-20T07:27:52;95903.53;;;23.27;56.81
5954;BME280;3002;42.642;24.812;2022-11-20T07:30:18;95917.66;;;24.94;53.29
5954;BME280;3002;42.642;24.812;2022-11-20T07:32:47;95931.47;;;26.10;51.01
5954;BME280;3002;42.642;24.812;2022-11-20T07:35:13;95904.75;;;27.90;45.98
5954;BME280;3002;42.642;24.812;2022-11-20T07:37:39;95930.63;;;28.54;43.27
5954;BME280;3002;42.642;24.812;2022-11-20T07:40:04;95911.16;;;28.65;43.65
5954;BME280;3002;42.642;24.812;2022-11-20T07:42:30;95923.06;;;29.09;43.92
5954;BME280;3002;42.642;24.812;2022-11-20T07:44:55;95927.19;;;27.89;48.63
5954;BME280;3002;42.642;24.812;2022-11-20T07:47:21;95941.31;;;28.52;47.27
5954;BME280;3002;42.642;24.812;2022-11-20T07:49:47;95911.78;;;27.23;49.16
5954;BME280;3002;42.642;24.812;2022-11-20T07:52:12;95913.94;;;27.42;50.00
5954;BME280;3002;42.642;24.812;2022-11-20T07:54:38;95927.19;;;27.17;50.44
5954;BME280;3002;42.642;24.812;2022-11-20T07:57:03;95932.22;;;26.14;53.16
5954;BME280;3002;42.642;24.812;2022-11-20T07:59:28;95917.06;;;25.88;54.24
5954;BME280;3002;42.642;24.812;2022-11-20T08:01:55;95911.78;;;25.10;56.23
5954;BME280;3002;42.642;24.812;2022-11-20T08:04:20;95920.75;;;24.32;58.57
5954;BME280;3002;42.642;24.812;2022-11-20T08:06:45;95923.09;;;24.26;59.63
5954;BME280;3002;42.642;24.812;2022-11-20T08:09:11;95924.25;;;24.11;59.71
5954;BME280;3002;42.642;24.812;2022-11-20T08:11:36;95940.84;;;23.56;61.98
5954;BME280;3002;42.642;24.812;2022-11-20T08:14:21;95929.84;;;23.45;63.16
5954;BME280;3002;42.642;24.812;2022-11-20T08:16:47;95933.41;;;23.53;63.91
5954;BME280;3002;42.642;24.812;2022-11-20T08:19:15;95921.13;;;23.22;65.41
5954;BME280;3002;42.642;24.812;2022-11-20T08:21:41;95916.28;;;23.67;65.04
5954;BME280;3002;42.642;24.812;2022-11-20T08:24:07;95917.44;;;23.62;60.14
5954;BME280;3002;42.642;24.812;2022-11-20T08:26:34;95909.56;;;23.54;55.51
5954;BME280;3002;42.642;24.812;2022-11-20T08:29:00;95898.38;;;23.87;59.73
5954;BME280;3002;42.642;24.812;2022-11-20T08:31:26;95923.16;;;24.37;57.05
5954;BME280;3002;42.642;24.812;2022-11-20T08:33:53;95908.75;;;23.49;59.69
5954;BME280;3002;42.642;24.812;2022-11-20T08:36:19;95923.56;;;23.45;56.00
5954;BME280;3002;42.642;24.812;2022-11-20T08:38:49;95902.97;;;22.92;56.45
5954;BME280;3002;42.642;24.812;2022-11-20T08:41:14;95893.16;;;23.57;53.85
5954;BME280;3002;42.642;24.812;2022-11-20T08:44:03;95890.22;;;23.18;55.12
5954;BME280;3002;42.642;24.812;2022-11-20T08:46:41;95907.81;;;23.17;55.78
5954;BME280;3002;42.642;24.812;2022-11-20T08:49:10;95917.34;;;23.48;53.83
5954;BME280;3002;42.642;24.812;2022-11-20T08:51:36;95889.38;;;23.07;54.40
5954;BME280;3002;42.642;24.812;2022-11-20T08:54:03;95923.75;;;23.81;53.78
5954;BME280;3002;42.642;24.812;2022-11-20T08:56:29;95915.91;;;23.03;54.14
5954;BME280;3002;42.642;24.812;2022-11-20T08:58:54;95888.53;;;23.72;53.06
5954;BME280;3002;42.642;24.812;2022-11-20T09:01:21;95903.00;;;23.65;52.87
5954;BME280;3002;42.642;24.812;2022-11-20T09:03:49;95909.69;;;23.82;52.60
5954;BME280;3002;42.642;24.812;2022-11-20T09:06:15;95876.66;;;23.39;53.54
5954;BME280;3002;42.642;24.812;2022-11-20T09:08:40;95875.72;;;24.94;49.84
5954;BME280;3002;42.642;24.812;2022-11-20T09:11:07;95886.56;;;25.54;48.61
5954;BME280;3002;42.642;24.812;2022-11-20T09:13:34;95887.91;;;24.68;50.04
5954;BME280;3002;42.642;24.812;2022-11-20T09:16:03;95866.38;;;24.48;50.11
5954;BME280;3002;42.642;24.812;2022-11-20T09:18:29;95883.84;;;25.51;47.75
5954;BME280;3002;42.642;24.812;2022-11-20T09:21:00;95896.88;;;25.00;49.57
5954;BME280;3002;42.642;24.812;2022-11-20T09:23:27;95903.16;;;25.26;52.68
5954;BME280;3002;42.642;24.812;2022-11-20T09:25:55;95892.44;;;25.63;52.50
5954;BME280;3002;42.642;24.812;2022-11-20T09:28:25;95882.22;;;28.22;47.63
5954;BME280;3002;42.642;24.812;2022-11-20T09:30:50;95876.31;;;30.01;43.43
5954;BME280;3002;42.642;24.812;2022-11-20T09:33:16;95881.44;;;29.63;39.89
5954;BME280;3002;42.642;24.812;2022-11-20T09:35:43;95860.28;;;29.92;41.45
5954;BME280;3002;42.642;24.812;2022-11-20T09:38:09;95879.78;;;31.64;37.49
5954;BME280;3002;42.642;24.812;2022-11-20T09:40:39;95881.16;;;32.40;33.93
5954;BME280;3002;42.642;24.812;2022-11-20T09:43:36;95870.66;;;28.35;42.31
5954;BME280;3002;42.642;24.812;2022-11-20T09:54:39;95857.06;;;26.42;45.09
5954;BME280;3002;42.642;24.812;2022-11-20T09:57:12;95839.16;;;25.47;46.57
5954;BME280;3002;42.642;24.812;2022-11-20T09:59:45;95847.53;;;25.99;46.60
5954;BME280;3002;42.642;24.812;2022-11-20T10:02:30;95830.16;;;26.16;46.70
5954;BME280;3002;42.642;24.812;2022-11-20T10:05:31;95851.78;;;28.80;41.45
5954;BME280;3002;42.642;24.812;2022-11-20T10:08:16;95843.00;;;29.88;39.25
5954;BME280;3002;42.642;24.812;2022-11-20T10:14:07;95843.75;;;26.34;46.77
5954;BME280;3002;42.642;24.812;2022-11-20T10:16:39;95838.34;;;26.20;47.49
5954;BME280;3002;42.642;24.812;2022-11-20T10:30:06;95853.34;;;25.24;55.64
5954;BME280;3002;42.642;24.812;2022-11-20T10:32:46;95828.38;;;24.08;58.27
5954;BME280;3002;42.642;24.812;2022-11-20T10:37:57;95851.63;;;23.44;60.98
5954;BME280;3002;42.642;24.812;2022-11-20T10:40:48;95837.75;;;23.96;59.14
5954;BME280;3002;42.642;24.812;2022-11-20T10:43:23;95817.41;;;23.93;59.36
5954;BME280;3002;42.642;24.812;2022-11-20T10:46:18;95806.41;;;23.86;59.28
5954;BME280;3002;42.642;24.812;2022-11-20T10:48:45;95808.00;;;24.34;57.58
5954;BME280;3002;42.642;24.812;2022-11-20T10:56:48;95805.25;;;24.83;50.35
5954;BME280;3002;42.642;24.812;2022-11-20T11:01:52;95800.47;;;26.86;46.26
5954;BME280;3002;42.642;24.812;2022-11-20T11:04:26;95809.03;;;28.68;42.53
5954;BME280;3002;42.642;24.812;2022-11-20T11:07:01;95795.19;;;27.06;44.27
5954;BME280;3002;42.642;24.812;2022-11-20T11:09:35;95798.72;;;26.17;47.15
5954;BME280;3002;42.642;24.812;2022-11-20T11:12:01;95793.63;;;26.64;46.19
5954;BME280;3002;42.642;24.812;2022-11-20T11:14:50;95806.03;;;25.79;48.79
5954;BME280;3002;42.642;24.812;2022-11-20T11:22:49;95791.03;;;25.17;49.86
5954;BME280;3002;42.642;24.812;2022-11-20T11:25:35;95799.59;;;25.37;47.90
5954;BME280;3002;42.642;24.812;2022-11-20T11:28:17;95776.69;;;26.69;45.12
5954;BME280;3002;42.642;24.812;2022-11-20T11:30:45;95790.94;;;28.17;43.83
5954;BME280;3002;42.642;24.812;2022-11-20T11:33:21;95783.22;;;27.51;44.36
5954;BME280;3002;42.642;24.812;2022-11-20T11:40:55;95780.31;;;25.51;50.18
5954;BME280;3002;42.642;24.812;2022-11-20T11:43:30;95766.09;;;25.63;49.83
5954;BME280;3002;42.642;24.812;2022-11-20T11:46:32;95778.81;;;26.02;49.37
5954;BME280;3002;42.642;24.812;2022-11-20T11:52:26;95764.09;;;24.80;51.68
5954;BME280;3002;42.642;24.812;2022-11-20T11:56:55;95754.41;;;24.15;50.70
5954;BME280;3002;42.642;24.812;2022-11-20T11:59:33;95763.41;;;24.08;51.71
5954;BME280;3002;42.642;24.812;2022-11-20T12:02:23;95755.84;;;23.37;52.78
5954;BME280;3002;42.642;24.812;2022-11-20T12:04:57;95755.56;;;23.85;51.99
5954;BME280;3002;42.642;24.812;2022-11-20T12:10:20;95731.19;;;23.19;54.84
5954;BME280;3002;42.642;24.812;2022-11-20T12:12:52;95736.75;;;23.59;54.36
5954;BME280;3002;42.642;24.812;2022-11-20T12:15:29;95754.00;;;24.48;52.41
5954;BME280;3002;42.642;24.812;2022-11-20T12:17:55;95750.47;;;23.98;53.80
5954;BME280;3002;42.642;24.812;2022-11-20T12:20:26;95759.47;;;23.91;53.47
5954;BME280;3002;42.642;24.812;2022-11-20T12:23:07;95741.84;;;24.28;52.97
5954;BME280;3002;42.642;24.812;2022-11-20T12:25:36;95739.50;;;24.26;52.15
5954;BME280;3002;42.642;24.812;2022-11-20T12:30:58;95758.97;;;24.93;51.14
5954;BME280;3002;42.642;24.812;2022-11-20T12:33:52;95756.97;;;25.00;51.91
5954;BME280;3002;42.642;24.812;2022-11-20T12:41:53;95766.53;;;24.17;55.35
5954;BME280;3002;42.642;24.812;2022-11-20T12:53:23;95739.91;;;24.03;55.87
5954;BME280;3002;42.642;24.812;2022-11-20T12:59:02;95744.91;;;23.44;58.40
5954;BME280;3002;42.642;24.812;2022-11-20T13:01:48;95745.72;;;23.48;57.98
5954;BME280;3002;42.642;24.812;2022-11-20T13:07:08;95747.78;;;22.75;61.06
5954;BME280;3002;42.642;24.812;2022-11-20T13:09:40;95737.41;;;23.06;60.78
5954;BME280;3002;42.642;24.812;2022-11-20T13:14:55;95752.72;;;23.28;58.53
5954;BME280;3002;42.642;24.812;2022-11-20T13:17:43;95750.09;;;23.85;56.91
5954;BME280;3002;42.642;24.812;2022-11-20T13:20:15;95756.09;;;22.96;58.66
5954;BME280;3002;42.642;24.812;2022-11-20T13:22:50;95754.66;;;23.31;58.18
5954;BME280;3002;42.642;24.812;2022-11-20T13:27:56;95749.19;;;23.28;58.39
5954;BME280;3002;42.642;24.812;2022-11-20T13:30:27;95762.94;;;23.45;57.48
5954;BME280;3002;42.642;24.812;2022-11-20T13:33:36;95759.50;;;23.88;55.90
5954;BME280;3002;42.642;24.812;2022-11-20T13:35:42;95748.41;;;23.23;56.12
5954;BME280;3002;42.642;24.812;2022-11-20T13:38:13;95767.16;;;23.32;57.14
5954;BME280;3002;42.642;24.812;2022-11-20T13:43:28;95764.59;;;24.18;56.68
5954;BME280;3002;42.642;24.812;2022-11-20T13:46:00;95772.00;;;23.96;60.07
5954;BME280;3002;42.642;24.812;2022-11-20T13:48:30;95770.06;;;23.82;57.96
5954;BME280;3002;42.642;24.812;2022-11-20T13:54:01;95764.44;;;23.32;62.83
5954;BME280;3002;42.642;24.812;2022-11-20T14:01:53;95759.34;;;23.31;63.80
5954;BME280;3002;42.642;24.812;2022-11-20T14:04:26;95785.22;;;23.47;63.05
5954;BME280;3002;42.642;24.812;2022-11-20T14:06:54;95764.00;;;23.16;70.92
5954;BME280;3002;42.642;24.812;2022-11-20T14:09:30;95780.09;;;22.55;73.66
5954;BME280;3002;42.642;24.812;2022-11-20T14:11:56;95771.56;;;21.68;80.35
5954;BME280;3002;42.642;24.812;2022-11-20T14:14:27;95809.25;;;21.55;84.09
5954;BME280;3002;42.642;24.812;2022-11-20T14:17:05;95842.75;;;21.22;96.59
5954;BME280;3002;42.642;24.812;2022-11-20T14:19:31;95842.00;;;20.42;100.00
5954;BME280;3002;42.642;24.812;2022-11-20T14:22:17;95884.97;;;19.45;100.00
5954;BME280;3002;42.642;24.812;2022-11-20T14:25:18;95897.56;;;19.92;100.00
5954;BME280;3002;42.642;24.812;2022-11-20T14:27:51;95874.34;;;19.98;100.00
5954;BME280;3002;42.642;24.812;2022-11-20T14:30:24;95856.09;;;19.79;100.00
5954;BME280;3002;42.642;24.812;2022-11-20T14:32:51;95847.47;;;19.35;100.00
5954;BME280;3002;42.642;24.812;2022-11-20T14:35:25;95830.19;;;19.66;100.00
5954;BME280;3002;42.642;24.812;2022-11-20T14:37:52;95804.31;;;19.33;100.00
5954;BME280;3002;42.642;24.812;2022-11-20T14:42:48;95790.31;;;19.31;100.00
5954;BME280;3002;42.642;24.812;2022-11-20T14:45:14;95825.25;;;19.52;100.00
5954;BME280;3002;42.642;24.812;2022-11-20T14:47:40;95835.66;;;19.27;100.00
5954;BME280;3002;42.642;24.812;2022-11-20T14:50:16;95828.16;;;19.82;100.00
5954;BME280;3002;42.642;24.812;2022-11-20T14:55:13;95800.59;;;19.41;100.00
5954;BME280;3002;42.642;24.812;2022-11-20T14:57:39;95808.69;;;19.38;100.00
5954;BME280;3002;42.642;24.812;2022-11-20T15:00:19;95797.88;;;19.84;100.00
5954;BME280;3002;42.642;24.812;2022-11-20T15:02:47;95745.41;;;18.98;100.00
5954;BME280;3002;42.642;24.812;2022-11-20T15:05:14;95714.72;;;18.59;100.00
5954;BME280;3002;42.642;24.812;2022-11-20T15:07:42;95734.25;;;19.04;100.00